createdAt,value
2017-10-11T00:00:17.535Z,0
2017-10-11T00:01:25.623Z,0
2017-10-11T00:02:33.711Z,0
2017-10-11T00:03:41.800Z,0
2017-10-11T00:04:49.885Z,0
2017-10-11T00:05:57.972Z,0
2017-10-11T00:07:06.058Z,0
2017-10-11T00:08:14.149Z,0
2017-10-11T00:09:22.235Z,0
2017-10-11T00:10:30.322Z,0
2017-10-11T00:11:38.409Z,0
2017-10-11T00:12:46.498Z,0
2017-10-11T00:13:54.585Z,0
2017-10-11T00:15:02.672Z,0
2017-10-11T00:16:10.768Z,0
2017-10-11T00:17:18.859Z,0
2017-10-11T00:18:26.943Z,0
2017-10-11T00:19:35.037Z,0
2017-10-11T00:20:43.121Z,0
2017-10-11T00:21:51.215Z,0
2017-10-11T00:22:59.304Z,0
2017-10-11T00:24:07.390Z,0
2017-10-11T00:25:15.491Z,0
2017-10-11T00:26:23.578Z,0
2017-10-11T00:27:31.682Z,0
2017-10-11T00:28:39.772Z,0
2017-10-11T00:29:47.842Z,0
2017-10-11T00:30:55.930Z,0
2017-10-11T00:32:04.016Z,0
2017-10-11T00:33:12.103Z,0
2017-10-11T00:34:20.189Z,0
2017-10-11T00:35:28.278Z,0
2017-10-11T00:36:36.366Z,0
2017-10-11T00:37:44.453Z,0
2017-10-11T00:38:52.544Z,0
2017-10-11T00:40:00.627Z,0
2017-10-11T00:41:08.721Z,0
2017-10-11T00:42:16.814Z,0
2017-10-11T00:43:24.913Z,0
2017-10-11T00:44:33.000Z,0
2017-10-11T00:45:41.088Z,0
2017-10-11T00:46:49.179Z,0
2017-10-11T00:47:57.266Z,0
2017-10-11T00:49:05.471Z,0
2017-10-11T00:50:13.559Z,0
2017-10-11T00:51:21.647Z,0
2017-10-11T00:52:29.737Z,0
2017-10-11T00:53:37.848Z,0
2017-10-11T00:54:45.912Z,0
2017-10-11T00:55:53.997Z,0
2017-10-11T00:57:02.103Z,0
2017-10-11T00:58:10.173Z,0
2017-10-11T00:59:18.261Z,0
2017-10-11T01:00:26.360Z,0
2017-10-11T01:01:34.437Z,0
2017-10-11T01:02:42.526Z,0
2017-10-11T01:03:50.612Z,0
2017-10-11T01:04:58.702Z,0
2017-10-11T01:06:06.805Z,0
2017-10-11T01:07:14.930Z,0
2017-10-11T01:08:22.964Z,0
2017-10-11T01:09:31.048Z,0
2017-10-11T01:10:39.136Z,0
2017-10-11T01:11:47.224Z,0
2017-10-11T01:12:55.313Z,0
2017-10-11T01:14:03.400Z,0
2017-10-11T01:15:11.487Z,0
2017-10-11T01:16:19.573Z,0
2017-10-11T01:17:27.666Z,0
2017-10-11T01:18:35.750Z,0
2017-10-11T01:19:43.839Z,0
2017-10-11T01:20:51.928Z,0
2017-10-11T01:22:00.026Z,0
2017-10-11T01:23:08.117Z,0
2017-10-11T01:24:16.209Z,0
2017-10-11T01:25:24.297Z,0
2017-10-11T01:26:32.384Z,0
2017-10-11T01:27:40.473Z,0
2017-10-11T01:28:48.561Z,0
2017-10-11T01:29:56.648Z,0
2017-10-11T01:31:04.746Z,0
2017-10-11T01:32:12.833Z,0
2017-10-11T01:33:20.921Z,0
2017-10-11T01:34:29.010Z,0
2017-10-11T01:35:37.097Z,0
2017-10-11T01:36:45.189Z,0
2017-10-11T01:37:53.269Z,0
2017-10-11T01:39:01.359Z,0
2017-10-11T01:40:09.444Z,0
2017-10-11T01:41:17.533Z,0
2017-10-11T01:42:25.621Z,0
2017-10-11T01:43:33.715Z,0
2017-10-11T01:44:41.797Z,0
2017-10-11T01:45:49.907Z,0
2017-10-11T01:46:57.974Z,0
2017-10-11T01:48:06.060Z,0
2017-10-11T01:49:14.147Z,0
2017-10-11T01:50:22.235Z,0
2017-10-11T01:51:30.326Z,0
2017-10-11T01:52:38.411Z,0
2017-10-11T01:53:46.503Z,0
2017-10-11T01:54:54.590Z,0
2017-10-11T01:56:02.680Z,0
2017-10-11T01:57:10.768Z,0
2017-10-11T01:58:18.852Z,0
2017-10-11T01:59:26.941Z,0
2017-10-11T02:00:35.027Z,0
2017-10-11T02:01:43.133Z,0
2017-10-11T02:02:51.203Z,0
2017-10-11T02:03:59.292Z,0
2017-10-11T02:05:07.379Z,0
2017-10-11T02:06:15.466Z,0
2017-10-11T02:07:23.562Z,0
2017-10-11T02:08:31.637Z,0
2017-10-11T02:09:39.738Z,0
2017-10-11T02:10:47.826Z,0
2017-10-11T02:11:55.914Z,0
2017-10-11T02:13:04.006Z,0
2017-10-11T02:14:12.088Z,0
2017-10-11T02:15:20.175Z,0
2017-10-11T02:16:28.259Z,0
2017-10-11T02:17:36.349Z,0
2017-10-11T02:18:44.435Z,0
2017-10-11T02:19:52.540Z,0
2017-10-11T02:21:00.620Z,0
2017-10-11T02:22:08.714Z,0
2017-10-11T02:23:16.797Z,0
2017-10-11T02:24:24.889Z,0
2017-10-11T02:25:32.970Z,0
2017-10-11T02:26:41.057Z,0
2017-10-11T02:27:49.163Z,0
2017-10-11T02:28:57.235Z,0
2017-10-11T02:30:05.323Z,0
2017-10-11T02:31:13.408Z,0
2017-10-11T02:32:21.497Z,0
2017-10-11T02:33:29.582Z,0
2017-10-11T02:34:37.678Z,0
2017-10-11T02:35:45.766Z,0
2017-10-11T02:36:53.845Z,0
2017-10-11T02:38:01.934Z,0
2017-10-11T02:39:10.021Z,0
2017-10-11T02:40:18.108Z,0
2017-10-11T02:41:26.195Z,0
2017-10-11T02:42:34.282Z,0
2017-10-11T02:43:42.368Z,0
2017-10-11T02:44:50.467Z,0
2017-10-11T02:45:58.554Z,0
2017-10-11T02:47:06.641Z,0
2017-10-11T02:48:14.730Z,0
2017-10-11T02:49:22.817Z,0
2017-10-11T02:50:30.915Z,0
2017-10-11T02:51:39.010Z,0
2017-10-11T02:52:47.141Z,0
2017-10-11T02:53:55.183Z,0
2017-10-11T02:55:03.270Z,0
2017-10-11T02:56:11.360Z,0
2017-10-11T02:57:19.443Z,0
2017-10-11T02:58:27.530Z,0
2017-10-11T02:59:35.619Z,0
2017-10-11T03:00:43.724Z,0
2017-10-11T03:01:51.794Z,0
2017-10-11T03:02:59.885Z,0
2017-10-11T03:04:07.970Z,0
2017-10-11T03:05:16.060Z,0
2017-10-11T03:06:24.146Z,0
2017-10-11T03:07:32.229Z,0
2017-10-11T03:08:40.325Z,0
2017-10-11T03:09:48.406Z,0
2017-10-11T03:10:56.494Z,0
2017-10-11T03:12:04.581Z,0
2017-10-11T03:13:12.672Z,0
2017-10-11T03:14:20.775Z,0
2017-10-11T03:15:29.019Z,0
2017-10-11T03:16:37.118Z,0
2017-10-11T03:17:45.205Z,0
2017-10-11T03:18:53.291Z,0
2017-10-11T03:20:01.373Z,0
2017-10-11T03:21:09.465Z,0
2017-10-11T03:22:17.566Z,0
2017-10-11T03:23:25.654Z,0
2017-10-11T03:24:33.762Z,0
2017-10-11T03:25:41.827Z,0
2017-10-11T03:26:49.927Z,0
2017-10-11T03:27:58.015Z,0
2017-10-11T03:29:06.103Z,0
2017-10-11T03:30:14.190Z,0
2017-10-11T03:31:22.288Z,0
2017-10-11T03:32:30.381Z,0
2017-10-11T03:33:38.461Z,0
2017-10-11T03:34:46.545Z,0
2017-10-11T03:35:54.635Z,0
2017-10-11T03:37:02.727Z,0
2017-10-11T03:38:10.808Z,0
2017-10-11T03:39:18.897Z,0
2017-10-11T03:40:26.983Z,0
2017-10-11T03:41:35.071Z,0
2017-10-11T03:42:43.156Z,0
2017-10-11T03:43:51.245Z,0
2017-10-11T03:44:59.334Z,0
2017-10-11T03:46:07.420Z,0
2017-10-11T03:47:15.508Z,0
2017-10-11T03:48:23.595Z,0
2017-10-11T03:49:31.686Z,0
2017-10-11T03:50:39.780Z,0
2017-10-11T03:51:47.883Z,0
2017-10-11T03:52:55.950Z,0
2017-10-11T03:54:04.040Z,0
2017-10-11T03:55:12.127Z,0
2017-10-11T03:56:20.213Z,0
2017-10-11T03:57:28.299Z,0
2017-10-11T03:58:36.385Z,0
2017-10-11T03:59:44.472Z,0
2017-10-11T04:00:52.560Z,0
2017-10-11T04:02:00.662Z,0
2017-10-11T04:03:08.737Z,0
2017-10-11T04:04:16.819Z,0
2017-10-11T04:05:24.925Z,0
2017-10-11T04:06:33.014Z,0
2017-10-11T04:07:41.080Z,0
2017-10-11T04:08:49.166Z,0
2017-10-11T04:09:57.251Z,0
2017-10-11T04:11:05.345Z,0
2017-10-11T04:12:13.426Z,0
2017-10-11T04:13:21.513Z,0
2017-10-11T04:14:29.599Z,0
2017-10-11T04:15:37.690Z,0
2017-10-11T04:16:45.776Z,0
2017-10-11T04:17:53.860Z,0
2017-10-11T04:19:01.946Z,0
2017-10-11T04:20:10.032Z,0
2017-10-11T04:21:18.122Z,0
2017-10-11T04:22:26.204Z,0
2017-10-11T04:23:34.928Z,0
2017-10-11T04:24:42.681Z,0
2017-10-11T04:25:50.655Z,0
2017-10-11T04:26:58.742Z,0
2017-10-11T04:28:06.723Z,0
2017-10-11T04:29:14.827Z,0
2017-10-11T04:30:22.887Z,0
2017-10-11T04:31:30.974Z,0
2017-10-11T04:32:39.005Z,0
2017-10-11T04:33:47.090Z,0
2017-10-11T04:34:55.176Z,0
2017-10-11T04:36:03.263Z,0
2017-10-11T04:37:11.350Z,0
2017-10-11T04:38:19.436Z,0
2017-10-11T04:39:27.935Z,0
2017-10-11T04:40:35.609Z,0
2017-10-11T04:41:43.716Z,0
2017-10-11T04:42:51.794Z,0
2017-10-11T04:43:59.877Z,0
2017-10-11T04:45:07.965Z,0
2017-10-11T04:46:16.052Z,0
2017-10-11T04:47:24.767Z,0
2017-10-11T04:48:32.224Z,0
2017-10-11T04:49:40.311Z,0
2017-10-11T04:50:48.498Z,0
2017-10-11T04:51:56.485Z,0
2017-10-11T04:53:04.568Z,0
2017-10-11T04:54:12.659Z,0
2017-10-11T04:55:20.761Z,0
2017-10-11T04:56:28.832Z,0
2017-10-11T04:57:37.295Z,0
2017-10-11T04:58:45.130Z,0
2017-10-11T04:59:53.095Z,0
2017-10-11T05:01:01.181Z,0
2017-10-11T05:02:09.272Z,0
2017-10-11T05:03:17.353Z,0
2017-10-11T05:04:25.440Z,0
2017-10-11T05:05:33.527Z,0
2017-10-11T05:06:41.615Z,0
2017-10-11T05:07:49.710Z,0
2017-10-11T05:08:57.788Z,0
2017-10-11T05:10:05.878Z,0
2017-10-11T05:11:13.957Z,0
2017-10-11T05:12:22.043Z,0
2017-10-11T05:13:30.130Z,0
2017-10-11T05:14:38.217Z,0
2017-10-11T05:15:46.307Z,0
2017-10-11T05:16:54.396Z,0
2017-10-11T05:18:02.477Z,0
2017-10-11T05:19:10.563Z,0
2017-10-11T05:20:18.648Z,0
2017-10-11T05:21:26.871Z,0
2017-10-11T05:22:34.823Z,0
2017-10-11T05:23:42.916Z,0
2017-10-11T05:24:51.007Z,0
2017-10-11T05:25:59.095Z,0
2017-10-11T05:27:07.184Z,0
2017-10-11T05:28:15.267Z,0
2017-10-11T05:29:23.390Z,0
2017-10-11T05:30:31.476Z,0
2017-10-11T05:31:39.571Z,0
2017-10-11T05:32:47.658Z,0
2017-10-11T05:33:55.771Z,0
2017-10-11T05:35:03.834Z,0
2017-10-11T05:36:11.940Z,0
2017-10-11T05:37:20.037Z,0
2017-10-11T05:38:28.144Z,0
2017-10-11T05:39:36.190Z,0
2017-10-11T05:40:44.277Z,0
2017-10-11T05:41:52.367Z,0
2017-10-11T05:43:00.449Z,0
2017-10-11T05:44:08.540Z,0
2017-10-11T05:45:16.625Z,0
2017-10-11T05:46:24.735Z,0
2017-10-11T05:47:32.895Z,0
2017-10-11T05:48:40.891Z,0
2017-10-11T05:49:48.983Z,0
2017-10-11T05:50:57.067Z,0
2017-10-11T05:52:05.164Z,4
2017-10-11T05:53:13.271Z,4
2017-10-11T05:54:21.330Z,0
2017-10-11T05:55:29.419Z,0
2017-10-11T05:56:37.501Z,0
2017-10-11T05:57:45.592Z,0
2017-10-11T05:58:53.677Z,0
2017-10-11T06:00:01.775Z,0
2017-10-11T06:01:09.860Z,4
2017-10-11T06:02:17.946Z,4
2017-10-11T06:03:26.033Z,4
2017-10-11T06:04:34.120Z,4
2017-10-11T06:05:42.203Z,0
2017-10-11T06:06:50.294Z,4
2017-10-11T06:07:58.373Z,4
2017-10-11T06:09:06.462Z,4
2017-10-11T06:10:14.547Z,4
2017-10-11T06:11:22.640Z,0
2017-10-11T06:12:30.719Z,0
2017-10-11T06:13:38.807Z,4
2017-10-11T06:14:46.893Z,4
2017-10-11T06:15:54.982Z,4
2017-10-11T06:17:03.068Z,4
2017-10-11T06:18:11.153Z,8
2017-10-11T06:19:19.240Z,4
2017-10-11T06:20:27.325Z,4
2017-10-11T06:21:35.412Z,8
2017-10-11T06:22:43.497Z,4
2017-10-11T06:23:51.587Z,4
2017-10-11T06:25:00.124Z,4
2017-10-11T06:26:08.220Z,8
2017-10-11T06:27:16.306Z,8
2017-10-11T06:28:24.393Z,8
2017-10-11T06:29:32.479Z,8
2017-10-11T06:30:40.566Z,8
2017-10-11T06:31:48.655Z,8
2017-10-11T06:32:56.746Z,4
2017-10-11T06:34:04.823Z,8
2017-10-11T06:35:12.913Z,8
2017-10-11T06:36:21.008Z,8
2017-10-11T06:37:29.085Z,8
2017-10-11T06:38:37.172Z,8
2017-10-11T06:39:45.258Z,8
2017-10-11T06:40:53.342Z,8
2017-10-11T06:42:01.429Z,12
2017-10-11T06:43:09.516Z,8
2017-10-11T06:44:17.601Z,12
2017-10-11T06:45:25.751Z,12
2017-10-11T06:46:33.771Z,8
2017-10-11T06:47:41.857Z,12
2017-10-11T06:48:49.945Z,8
2017-10-11T06:49:58.029Z,8
2017-10-11T06:51:06.116Z,8
2017-10-11T06:52:14.202Z,12
2017-10-11T06:53:22.286Z,12
2017-10-11T06:54:30.373Z,12
2017-10-11T06:55:38.461Z,12
2017-10-11T06:56:46.545Z,12
2017-10-11T06:57:54.630Z,12
2017-10-11T06:59:02.714Z,12
2017-10-11T07:00:10.811Z,12
2017-10-11T07:01:18.888Z,12
2017-10-11T07:02:26.979Z,12
2017-10-11T07:03:35.060Z,16
2017-10-11T07:04:43.149Z,12
2017-10-11T07:05:51.236Z,16
2017-10-11T07:06:59.329Z,16
2017-10-11T07:08:07.414Z,12
2017-10-11T07:09:15.502Z,12
2017-10-11T07:10:23.585Z,16
2017-10-11T07:11:31.676Z,16
2017-10-11T07:12:39.765Z,16
2017-10-11T07:13:47.850Z,16
2017-10-11T07:14:55.935Z,20
2017-10-11T07:16:04.028Z,20
2017-10-11T07:17:12.107Z,16
2017-10-11T07:18:20.199Z,20
2017-10-11T07:19:28.279Z,20
2017-10-11T07:20:36.364Z,24
2017-10-11T07:21:44.450Z,24
2017-10-11T07:22:52.536Z,28
2017-10-11T07:24:00.622Z,28
2017-10-11T07:25:08.712Z,24
2017-10-11T07:26:16.800Z,20
2017-10-11T07:27:24.886Z,20
2017-10-11T07:28:32.965Z,20
2017-10-11T07:29:41.069Z,24
2017-10-11T07:30:49.138Z,24
2017-10-11T07:31:57.223Z,20
2017-10-11T07:33:05.310Z,16
2017-10-11T07:34:13.545Z,12
2017-10-11T07:35:21.623Z,12
2017-10-11T07:36:29.712Z,16
2017-10-11T07:37:37.794Z,16
2017-10-11T07:38:45.878Z,20
2017-10-11T07:39:53.966Z,16
2017-10-11T07:41:02.054Z,16
2017-10-11T07:42:10.141Z,20
2017-10-11T07:43:18.223Z,16
2017-10-11T07:44:26.310Z,20
2017-10-11T07:45:34.394Z,16
2017-10-11T07:46:42.480Z,12
2017-10-11T07:47:50.564Z,12
2017-10-11T07:48:58.651Z,24
2017-10-11T07:50:06.736Z,24
2017-10-11T07:51:14.824Z,20
2017-10-11T07:52:22.919Z,24
2017-10-11T07:53:31.003Z,24
2017-10-11T07:54:39.095Z,16
2017-10-11T07:55:47.180Z,28
2017-10-11T07:56:55.270Z,20
2017-10-11T07:58:03.356Z,20
2017-10-11T07:59:11.443Z,24
2017-10-11T08:00:19.527Z,20
2017-10-11T08:01:27.613Z,16
2017-10-11T08:02:35.696Z,16
2017-10-11T08:03:43.783Z,24
2017-10-11T08:04:51.871Z,24
2017-10-11T08:05:59.952Z,28
2017-10-11T08:07:08.042Z,28
2017-10-11T08:08:16.125Z,24
2017-10-11T08:09:24.210Z,20
2017-10-11T08:10:32.321Z,28
2017-10-11T08:11:40.399Z,28
2017-10-11T08:12:48.487Z,28
2017-10-11T08:13:56.587Z,28
2017-10-11T08:15:04.675Z,28
2017-10-11T08:16:12.780Z,28
2017-10-11T08:17:20.848Z,20
2017-10-11T08:18:28.945Z,28
2017-10-11T08:19:37.016Z,32
2017-10-11T08:20:45.103Z,28
2017-10-11T08:21:53.202Z,32
2017-10-11T08:23:01.277Z,28
2017-10-11T08:24:09.360Z,28
2017-10-11T08:25:17.448Z,32
2017-10-11T08:26:25.533Z,32
2017-10-11T08:27:33.633Z,28
2017-10-11T08:28:41.706Z,32
2017-10-11T08:29:49.797Z,32
2017-10-11T08:30:57.875Z,24
2017-10-11T08:32:05.961Z,28
2017-10-11T08:33:14.045Z,32
2017-10-11T08:34:22.136Z,28
2017-10-11T08:35:30.218Z,24
2017-10-11T08:36:38.305Z,32
2017-10-11T08:37:46.390Z,28
2017-10-11T08:38:54.475Z,32
2017-10-11T08:40:02.571Z,32
2017-10-11T08:41:10.677Z,32
2017-10-11T08:42:18.744Z,32
2017-10-11T08:43:26.829Z,32
2017-10-11T08:44:34.916Z,36
2017-10-11T08:45:43.006Z,32
2017-10-11T08:46:51.088Z,32
2017-10-11T08:47:59.173Z,24
2017-10-11T08:49:07.261Z,32
2017-10-11T08:50:15.346Z,32
2017-10-11T08:51:23.431Z,32
2017-10-11T08:52:31.515Z,28
2017-10-11T08:53:39.603Z,32
2017-10-11T08:54:47.688Z,32
2017-10-11T08:55:55.795Z,28
2017-10-11T08:57:03.865Z,32
2017-10-11T08:58:11.950Z,36
2017-10-11T08:59:20.035Z,36
2017-10-11T09:00:28.121Z,32
2017-10-11T09:01:36.212Z,36
2017-10-11T09:02:44.295Z,36
2017-10-11T09:03:52.380Z,36
2017-10-11T09:05:00.467Z,36
2017-10-11T09:06:08.551Z,36
2017-10-11T09:07:16.637Z,36
2017-10-11T09:08:24.730Z,36
2017-10-11T09:09:32.828Z,36
2017-10-11T09:10:40.895Z,40
2017-10-11T09:11:48.985Z,36
2017-10-11T09:12:57.068Z,40
2017-10-11T09:14:05.159Z,36
2017-10-11T09:15:13.247Z,36
2017-10-11T09:16:21.330Z,40
2017-10-11T09:17:29.424Z,40
2017-10-11T09:17:29.436Z,40
2017-10-11T09:18:37.499Z,36
2017-10-11T09:19:45.584Z,36
2017-10-11T09:20:53.674Z,40
2017-10-11T09:22:01.756Z,40
2017-10-11T09:23:09.842Z,40
2017-10-11T09:24:17.931Z,36
2017-10-11T09:25:26.014Z,40
2017-10-11T09:26:34.101Z,36
2017-10-11T09:27:42.184Z,40
2017-10-11T09:28:50.269Z,40
2017-10-11T09:29:58.365Z,40
2017-10-11T09:31:06.451Z,40
2017-10-11T09:32:14.536Z,40
2017-10-11T09:33:22.633Z,40
2017-10-11T09:34:30.722Z,40
2017-10-11T09:35:38.803Z,40
2017-10-11T09:36:46.889Z,40
2017-10-11T09:37:54.977Z,40
2017-10-11T09:39:03.063Z,40
2017-10-11T09:40:11.149Z,36
2017-10-11T09:41:19.232Z,40
2017-10-11T09:42:27.324Z,40
2017-10-11T09:43:35.405Z,40
2017-10-11T09:44:43.489Z,40
2017-10-11T09:45:51.580Z,40
2017-10-11T09:46:59.667Z,44
2017-10-11T09:48:07.748Z,32
2017-10-11T09:49:15.834Z,40
2017-10-11T09:50:24.320Z,40
2017-10-11T09:51:32.332Z,40
2017-10-11T09:52:40.419Z,40
2017-10-11T09:53:48.508Z,40
2017-10-11T09:54:56.591Z,40
2017-10-11T09:56:04.695Z,40
2017-10-11T09:57:12.768Z,40
2017-10-11T09:58:20.856Z,40
2017-10-11T09:59:28.944Z,40
2017-10-11T10:00:37.029Z,40
2017-10-11T10:01:45.113Z,40
2017-10-11T10:02:53.200Z,36
2017-10-11T10:04:01.287Z,40
2017-10-11T10:05:09.368Z,40
2017-10-11T10:06:17.456Z,40
2017-10-11T10:07:25.543Z,40
2017-10-11T10:08:33.635Z,40
2017-10-11T10:09:41.720Z,40
2017-10-11T10:10:49.809Z,40
2017-10-11T10:11:57.897Z,40
2017-10-11T10:13:06.067Z,36
2017-10-11T10:14:14.061Z,36
2017-10-11T10:15:22.157Z,40
2017-10-11T10:16:30.231Z,36
2017-10-11T10:17:38.316Z,36
2017-10-11T10:18:46.404Z,36
2017-10-11T10:19:54.490Z,36
2017-10-11T10:21:02.617Z,36
2017-10-11T10:22:10.670Z,40
2017-10-11T10:23:18.760Z,36
2017-10-11T10:24:27.221Z,40
2017-10-11T10:25:34.925Z,40
2017-10-11T10:26:43.010Z,36
2017-10-11T10:27:51.101Z,40
2017-10-11T10:28:59.183Z,36
2017-10-11T10:30:07.363Z,36
2017-10-11T10:31:15.356Z,36
2017-10-11T10:32:23.440Z,36
2017-10-11T10:33:31.528Z,36
2017-10-11T10:34:39.612Z,32
2017-10-11T10:35:47.724Z,36
2017-10-11T10:36:55.793Z,36
2017-10-11T10:38:03.882Z,32
2017-10-11T10:39:11.964Z,36
2017-10-11T10:40:20.057Z,32
2017-10-11T10:41:28.145Z,32
2017-10-11T10:42:36.238Z,36
2017-10-11T10:43:44.318Z,32
2017-10-11T10:44:52.403Z,36
2017-10-11T10:46:00.490Z,32
2017-10-11T10:47:08.586Z,32
2017-10-11T10:48:16.771Z,32
2017-10-11T10:49:24.760Z,28
2017-10-11T10:50:32.845Z,36
2017-10-11T10:51:40.932Z,32
2017-10-11T10:52:49.016Z,32
2017-10-11T10:53:57.121Z,32
2017-10-11T10:55:05.200Z,32
2017-10-11T10:56:13.277Z,32
2017-10-11T10:57:21.362Z,28
2017-10-11T10:58:29.447Z,32
2017-10-11T10:59:37.536Z,32
2017-10-11T11:00:45.645Z,28
2017-10-11T11:01:53.725Z,32
2017-10-11T11:03:01.819Z,28
2017-10-11T11:04:09.914Z,32
2017-10-11T11:05:17.994Z,32
2017-10-11T11:06:26.078Z,28
2017-10-11T11:07:34.316Z,28
2017-10-11T11:08:42.372Z,32
2017-10-11T11:09:50.789Z,32
2017-10-11T11:10:58.921Z,28
2017-10-11T11:12:07.013Z,32
2017-10-11T11:13:15.093Z,28
2017-10-11T11:14:23.179Z,28
2017-10-11T11:15:31.268Z,32
2017-10-11T11:16:39.353Z,32
2017-10-11T11:17:47.438Z,28
2017-10-11T11:18:55.525Z,28
2017-10-11T11:20:03.611Z,28
2017-10-11T11:21:11.697Z,28
2017-10-11T11:22:19.786Z,24
2017-10-11T11:23:27.880Z,28
2017-10-11T11:24:35.968Z,24
2017-10-11T11:25:44.049Z,28
2017-10-11T11:26:52.141Z,28
2017-10-11T11:28:00.224Z,28
2017-10-11T11:29:08.314Z,28
2017-10-11T11:30:16.395Z,28
2017-10-11T11:31:24.489Z,28
2017-10-11T11:32:32.572Z,24
2017-10-11T11:33:40.655Z,28
2017-10-11T11:34:48.745Z,28
2017-10-11T11:35:56.831Z,24
2017-10-11T11:37:04.913Z,24
2017-10-11T11:38:13.001Z,28
2017-10-11T11:39:21.086Z,28
2017-10-11T11:40:29.172Z,28
2017-10-11T11:41:37.258Z,24
2017-10-11T11:42:45.346Z,24
2017-10-11T11:43:53.431Z,24
2017-10-11T11:45:01.515Z,24
2017-10-11T11:46:09.604Z,24
2017-10-11T11:47:17.690Z,24
2017-10-11T11:48:25.783Z,28
2017-10-11T11:49:33.881Z,28
2017-10-11T11:50:41.950Z,28
2017-10-11T11:51:50.036Z,28
2017-10-11T11:52:58.122Z,24
2017-10-11T11:54:06.214Z,28
2017-10-11T11:55:14.295Z,28
2017-10-11T11:56:22.384Z,28
2017-10-11T11:57:30.467Z,24
2017-10-11T11:58:38.557Z,24
2017-10-11T11:59:46.640Z,24
2017-10-11T12:00:54.725Z,28
2017-10-11T12:02:02.811Z,28
2017-10-11T12:03:10.900Z,24
2017-10-11T12:04:18.988Z,28
2017-10-11T12:05:27.070Z,24
2017-10-11T12:06:35.157Z,24
2017-10-11T12:07:43.246Z,24
2017-10-11T12:08:51.329Z,24
2017-10-11T12:09:59.414Z,24
2017-10-11T12:11:07.501Z,24
2017-10-11T12:12:15.590Z,28
2017-10-11T12:13:23.693Z,24
2017-10-11T12:14:31.770Z,24
2017-10-11T12:15:39.865Z,24
2017-10-11T12:16:47.938Z,24
2017-10-11T12:17:56.019Z,24
2017-10-11T12:19:04.106Z,24
2017-10-11T12:20:12.204Z,28
2017-10-11T12:21:20.275Z,28
2017-10-11T12:22:28.366Z,24
2017-10-11T12:23:36.513Z,24
2017-10-11T12:24:44.548Z,24
2017-10-11T12:25:52.627Z,28
2017-10-11T12:27:00.728Z,28
2017-10-11T12:28:08.798Z,28
2017-10-11T12:29:16.890Z,28
2017-10-11T12:30:24.975Z,28
2017-10-11T12:31:33.063Z,28
2017-10-11T12:32:41.272Z,24
2017-10-11T12:33:49.359Z,28
2017-10-11T12:34:57.447Z,28
2017-10-11T12:36:05.533Z,28
2017-10-11T12:37:13.619Z,28
2017-10-11T12:38:21.704Z,32
2017-10-11T12:39:29.793Z,28
2017-10-11T12:40:37.877Z,28
2017-10-11T12:41:46.023Z,28
2017-10-11T12:42:54.051Z,28
2017-10-11T12:44:02.138Z,28
2017-10-11T12:45:10.223Z,28
2017-10-11T12:46:18.309Z,28
2017-10-11T12:47:26.401Z,28
2017-10-11T12:48:34.480Z,24
2017-10-11T12:49:42.568Z,28
2017-10-11T12:50:50.653Z,28
2017-10-11T12:51:58.743Z,24
2017-10-11T12:53:06.825Z,24
2017-10-11T12:54:14.910Z,24
2017-10-11T12:55:23.000Z,24
2017-10-11T12:56:31.083Z,28
2017-10-11T12:57:39.173Z,28
2017-10-11T12:58:47.254Z,24
2017-10-11T12:59:55.339Z,24
2017-10-11T13:01:03.426Z,24
2017-10-11T13:02:11.513Z,24
2017-10-11T13:03:19.600Z,24
2017-10-11T13:04:27.707Z,24
2017-10-11T13:05:35.796Z,24
2017-10-11T13:06:43.868Z,24
2017-10-11T13:07:51.950Z,28
2017-10-11T13:09:00.051Z,24
2017-10-11T13:10:08.122Z,28
2017-10-11T13:11:16.208Z,28
2017-10-11T13:12:24.299Z,28
2017-10-11T13:13:32.379Z,28
2017-10-11T13:14:40.468Z,28
2017-10-11T13:15:48.560Z,28
2017-10-11T13:16:56.639Z,32
2017-10-11T13:18:04.731Z,28
2017-10-11T13:19:12.811Z,32
2017-10-11T13:20:20.904Z,32
2017-10-11T13:21:28.987Z,32
2017-10-11T13:22:37.070Z,28
2017-10-11T13:23:45.155Z,32
2017-10-11T13:24:53.242Z,32
2017-10-11T13:26:01.638Z,32
2017-10-11T13:27:09.734Z,36
2017-10-11T13:28:17.815Z,32
2017-10-11T13:29:25.899Z,36
2017-10-11T13:30:33.982Z,32
2017-10-11T13:31:42.073Z,36
2017-10-11T13:32:50.156Z,32
2017-10-11T13:33:58.241Z,32
2017-10-11T13:35:06.332Z,32
2017-10-11T13:36:14.414Z,36
2017-10-11T13:37:22.510Z,36
2017-10-11T13:38:30.590Z,36
2017-10-11T13:39:38.671Z,36
2017-10-11T13:40:46.763Z,36
2017-10-11T13:41:54.854Z,32
2017-10-11T13:43:02.930Z,36
2017-10-11T13:44:11.019Z,36
2017-10-11T13:45:19.100Z,36
2017-10-11T13:46:27.211Z,36
2017-10-11T13:47:35.273Z,32
2017-10-11T13:48:43.360Z,36
2017-10-11T13:49:51.450Z,40
2017-10-11T13:50:59.535Z,40
2017-10-11T13:52:07.628Z,40
2017-10-11T13:53:15.715Z,36
2017-10-11T13:54:23.806Z,36
2017-10-11T13:55:31.887Z,40
2017-10-11T13:56:39.973Z,40
2017-10-11T13:57:48.087Z,40
2017-10-11T13:58:56.146Z,44
2017-10-11T14:00:04.233Z,44
2017-10-11T14:01:12.318Z,44
2017-10-11T14:02:20.407Z,48
2017-10-11T14:03:28.500Z,48
2017-10-11T14:04:36.583Z,48
2017-10-11T14:05:44.671Z,48
2017-10-11T14:06:52.761Z,44
2017-10-11T14:08:00.844Z,48
2017-10-11T14:09:08.930Z,48
2017-10-11T14:10:17.017Z,48
2017-10-11T14:11:25.103Z,48
2017-10-11T14:12:33.191Z,44
2017-10-11T14:13:41.274Z,48
2017-10-11T14:14:49.361Z,44
2017-10-11T14:15:57.449Z,44
2017-10-11T14:17:05.535Z,44
2017-10-11T14:18:13.624Z,44
2017-10-11T14:19:21.713Z,44
2017-10-11T14:20:30.058Z,44
2017-10-11T14:21:38.158Z,44
2017-10-11T14:22:46.241Z,44
2017-10-11T14:23:54.338Z,44
2017-10-11T14:25:02.425Z,48
2017-10-11T14:26:10.511Z,48
2017-10-11T14:27:18.606Z,48
2017-10-11T14:28:26.693Z,40
2017-10-11T14:29:34.783Z,40
2017-10-11T14:30:42.887Z,36
2017-10-11T14:31:50.961Z,36
2017-10-11T14:32:59.046Z,36
2017-10-11T14:34:07.135Z,40
2017-10-11T14:35:15.222Z,36
2017-10-11T14:36:23.312Z,40
2017-10-11T14:37:31.394Z,40
2017-10-11T14:38:39.480Z,44
2017-10-11T14:39:47.570Z,48
2017-10-11T14:40:55.668Z,56
2017-10-11T14:42:03.922Z,60
2017-10-11T14:43:12.025Z,68
2017-10-11T14:44:20.095Z,72
2017-10-11T14:45:28.178Z,80
2017-10-11T14:46:36.265Z,84
2017-10-11T14:47:44.363Z,88
2017-10-11T14:48:52.447Z,96
2017-10-11T14:50:00.538Z,96
2017-10-11T14:51:08.621Z,104
2017-10-11T14:52:16.706Z,108
2017-10-11T14:53:25.079Z,112
2017-10-11T14:54:32.879Z,120
2017-10-11T14:55:40.973Z,124
2017-10-11T14:56:49.058Z,128
2017-10-11T14:57:57.148Z,136
2017-10-11T14:59:05.232Z,144
2017-10-11T15:00:13.317Z,152
2017-10-11T15:01:21.403Z,156
2017-10-11T15:02:29.488Z,160
2017-10-11T15:03:37.592Z,156
2017-10-11T15:04:45.690Z,152
2017-10-11T15:05:53.784Z,144
2017-10-11T15:07:01.861Z,140
2017-10-11T15:08:09.950Z,132
2017-10-11T15:09:18.032Z,108
2017-10-11T15:10:26.120Z,92
2017-10-11T15:11:34.207Z,76
2017-10-11T15:12:42.298Z,44
2017-10-11T15:13:50.379Z,20
2017-10-11T15:14:58.482Z,8
2017-10-11T15:16:06.551Z,12
2017-10-11T15:17:14.637Z,8
2017-10-11T15:18:22.861Z,12
2017-10-11T15:19:30.822Z,8
2017-10-11T15:20:38.907Z,8
2017-10-11T15:21:47.003Z,8
2017-10-11T15:22:55.081Z,8
2017-10-11T15:24:03.166Z,8
2017-10-11T15:25:11.354Z,8
2017-10-11T15:26:19.338Z,8
2017-10-11T15:27:27.426Z,8
2017-10-11T15:28:35.514Z,8
2017-10-11T15:29:43.600Z,8
2017-10-11T15:30:51.683Z,8
2017-10-11T15:31:59.777Z,4
2017-10-11T15:33:07.859Z,4
2017-10-11T15:34:15.955Z,8
2017-10-11T15:35:24.042Z,4
2017-10-11T15:36:32.124Z,4
2017-10-11T15:37:40.223Z,4
2017-10-11T15:38:48.319Z,8
2017-10-11T15:39:56.403Z,4
2017-10-11T15:41:04.487Z,4
2017-10-11T15:42:12.574Z,4
2017-10-11T15:43:20.661Z,8
2017-10-11T15:44:28.759Z,4
2017-10-11T15:45:36.843Z,4
2017-10-11T15:46:44.940Z,4
2017-10-11T15:47:53.020Z,4
2017-10-11T15:49:01.112Z,4
2017-10-11T15:50:09.188Z,4
2017-10-11T15:51:17.517Z,4
2017-10-11T15:52:25.362Z,4
2017-10-11T15:53:33.446Z,4
2017-10-11T15:54:41.533Z,4
2017-10-11T15:55:49.898Z,4
2017-10-11T15:56:57.852Z,4
2017-10-11T15:58:05.801Z,4
2017-10-11T15:59:13.878Z,0
2017-10-11T16:00:21.962Z,4
2017-10-11T16:01:30.049Z,4
2017-10-11T16:02:38.160Z,4
2017-10-11T16:03:46.221Z,4
2017-10-11T16:04:54.308Z,4
2017-10-11T16:06:02.389Z,4
2017-10-11T16:07:10.481Z,4
2017-10-11T16:08:18.565Z,4
2017-10-11T16:09:26.651Z,4
2017-10-11T16:10:35.097Z,4
2017-10-11T16:11:43.184Z,4
2017-10-11T16:12:51.271Z,4
2017-10-11T16:13:59.356Z,4
2017-10-11T16:15:07.443Z,4
2017-10-11T16:16:15.536Z,4
2017-10-11T16:17:23.616Z,4
2017-10-11T16:18:31.709Z,4
2017-10-11T16:19:39.791Z,4
2017-10-11T16:20:47.879Z,0
2017-10-11T16:21:55.960Z,0
2017-10-11T16:23:04.044Z,0
2017-10-11T16:24:12.131Z,0
2017-10-11T16:25:20.216Z,0
2017-10-11T16:26:28.305Z,0